sensor_id;sensor_type;location;lat;lon;timestamp;temperature;humidity
38582;DHT22;24349;53.720;10.014;2023-07-31T00:00:06;14.70;99.90
38582;DHT22;24349;53.720;10.014;2023-07-31T00:02:34;14.80;99.90
38582;DHT22;24349;53.720;10.014;2023-07-31T00:05:01;14.80;99.90
38582;DHT22;24349;53.720;10.014;2023-07-31T00:07:26;14.80;99.90
38582;DHT22;24349;53.720;10.014;2023-07-31T00:09:52;14.70;99.90
38582;DHT22;24349;53.720;10.014;2023-07-31T00:12:19;14.70;99.90
38582;DHT22;24349;53.720;10.014;2023-07-31T00:14:45;14.70;99.90
38582;DHT22;24349;53.720;10.014;2023-07-31T00:17:11;14.70;99.90
38582;DHT22;24349;53.720;10.014;2023-07-31T00:19:37;14.70;99.90
38582;DHT22;24349;53.720;10.014;2023-07-31T00:22:02;14.60;99.90
38582;DHT22;24349;53.720;10.014;2023-07-31T00:24:28;14.70;99.90
38582;DHT22;24349;53.720;10.014;2023-07-31T00:26:54;14.70;99.90
38582;DHT22;24349;53.720;10.014;2023-07-31T00:29:19;14.70;99.90
38582;DHT22;24349;53.720;10.014;2023-07-31T00:31:45;14.70;99.90
38582;DHT22;24349;53.720;10.014;2023-07-31T00:34:10;14.70;99.90
38582;DHT22;24349;53.720;10.014;2023-07-31T00:36:36;14.80;99.90
38582;DHT22;24349;53.720;10.014;2023-07-31T00:39:02;14.80;99.90
38582;DHT22;24349;53.720;10.014;2023-07-31T00:41:28;14.80;99.90
38582;DHT22;24349;53.720;10.014;2023-07-31T00:43:53;14.90;99.90
38582;DHT22;24349;53.720;10.014;2023-07-31T00:46:19;15.00;99.90
38582;DHT22;24349;53.720;10.014;2023-07-31T00:48:45;15.00;99.90
38582;DHT22;24349;53.720;10.014;2023-07-31T00:51:11;15.00;99.90
38582;DHT22;24349;53.720;10.014;2023-07-31T00:53:37;15.00;99.90
38582;DHT22;24349;53.720;10.014;2023-07-31T00:56:03;15.00;99.90
38582;DHT22;24349;53.720;10.014;2023-07-31T00:58:30;15.00;99.90
38582;DHT22;24349;53.720;10.014;2023-07-31T01:00:55;15.00;99.90
38582;DHT22;24349;53.720;10.014;2023-07-31T01:03:21;14.90;99.90
38582;DHT22;24349;53.720;10.014;2023-07-31T01:09:00;14.90;99.90
38582;DHT22;24349;53.720;10.014;2023-07-31T01:11:30;14.80;99.90
38582;DHT22;24349;53.720;10.014;2023-07-31T01:13:56;14.80;99.90
38582;DHT22;24349;53.720;10.014;2023-07-31T01:16:22;14.80;99.90
38582;DHT22;24349;53.720;10.014;2023-07-31T01:18:48;14.90;99.90
38582;DHT22;24349;53.720;10.014;2023-07-31T01:21:30;14.80;99.90
38582;DHT22;24349;53.720;10.014;2023-07-31T01:26:38;14.80;99.90
38582;DHT22;24349;53.720;10.014;2023-07-31T01:31:47;14.80;99.90
38582;DHT22;24349;53.720;10.014;2023-07-31T01:34:14;14.60;99.90
38582;DHT22;24349;53.720;10.014;2023-07-31T01:36:42;14.70;99.90
38582;DHT22;24349;53.720;10.014;2023-07-31T01:39:07;14.60;99.90
38582;DHT22;24349;53.720;10.014;2023-07-31T01:41:33;14.60;99.90
38582;DHT22;24349;53.720;10.014;2023-07-31T01:43:59;14.70;99.90
38582;DHT22;24349;53.720;10.014;2023-07-31T01:46:25;14.70;99.90
38582;DHT22;24349;53.720;10.014;2023-07-31T01:48:51;14.60;99.90
38582;DHT22;24349;53.720;10.014;2023-07-31T01:51:16;14.70;99.90
38582;DHT22;24349;53.720;10.014;2023-07-31T01:53:42;14.70;99.90
38582;DHT22;24349;53.720;10.014;2023-07-31T01:56:08;14.70;99.90
38582;DHT22;24349;53.720;10.014;2023-07-31T01:58:33;14.70;99.90
38582;DHT22;24349;53.720;10.014;2023-07-31T02:00:59;14.70;99.90
38582;DHT22;24349;53.720;10.014;2023-07-31T02:03:25;14.80;99.90
38582;DHT22;24349;53.720;10.014;2023-07-31T02:05:50;14.80;99.90
38582;DHT22;24349;53.720;10.014;2023-07-31T02:08:16;14.70;99.90
38582;DHT22;24349;53.720;10.014;2023-07-31T02:10:42;14.70;99.90
38582;DHT22;24349;53.720;10.014;2023-07-31T02:13:08;14.70;99.90
38582;DHT22;24349;53.720;10.014;2023-07-31T02:15:34;14.70;99.90
38582;DHT22;24349;53.720;10.014;2023-07-31T02:18:00;14.60;99.90
38582;DHT22;24349;53.720;10.014;2023-07-31T02:20:26;14.60;99.90
38582;DHT22;24349;53.720;10.014;2023-07-31T02:22:51;14.70;99.90
38582;DHT22;24349;53.720;10.014;2023-07-31T02:25:17;14.70;99.90
38582;DHT22;24349;53.720;10.014;2023-07-31T02:27:42;14.70;99.90
38582;DHT22;24349;53.720;10.014;2023-07-31T02:30:09;14.70;99.90
38582;DHT22;24349;53.720;10.014;2023-07-31T02:32:34;14.60;99.90
38582;DHT22;24349;53.720;10.014;2023-07-31T02:35:00;14.60;99.90
38582;DHT22;24349;53.720;10.014;2023-07-31T02:37:26;14.60;99.90
38582;DHT22;24349;53.720;10.014;2023-07-31T02:39:54;14.70;99.90
38582;DHT22;24349;53.720;10.014;2023-07-31T02:42:19;14.70;99.90
38582;DHT22;24349;53.720;10.014;2023-07-31T02:44:45;14.70;99.90
38582;DHT22;24349;53.720;10.014;2023-07-31T02:47:10;14.70;99.90
38582;DHT22;24349;53.720;10.014;2023-07-31T02:49:36;14.70;99.90
38582;DHT22;24349;53.720;10.014;2023-07-31T02:52:02;14.80;99.90
38582;DHT22;24349;53.720;10.014;2023-07-31T02:54:27;14.80;99.90
38582;DHT22;24349;53.720;10.014;2023-07-31T02:56:53;14.70;99.90
38582;DHT22;24349;53.720;10.014;2023-07-31T02:59:19;14.80;99.90
38582;DHT22;24349;53.720;10.014;2023-07-31T03:01:45;14.80;99.90
38582;DHT22;24349;53.720;10.014;2023-07-31T03:04:11;14.80;99.90
38582;DHT22;24349;53.720;10.014;2023-07-31T03:06:36;14.80;99.90
38582;DHT22;24349;53.720;10.014;2023-07-31T03:09:02;14.80;99.90
38582;DHT22;24349;53.720;10.014;2023-07-31T03:11:27;14.80;99.90
38582;DHT22;24349;53.720;10.014;2023-07-31T03:13:53;14.90;99.90
38582;DHT22;24349;53.720;10.014;2023-07-31T03:16:19;14.90;99.90
38582;DHT22;24349;53.720;10.014;2023-07-31T03:18:45;15.00;99.90
38582;DHT22;24349;53.720;10.014;2023-07-31T03:21:10;14.90;99.90
38582;DHT22;24349;53.720;10.014;2023-07-31T03:23:36;15.00;99.90
38582;DHT22;24349;53.720;10.014;2023-07-31T03:26:03;15.00;99.90
38582;DHT22;24349;53.720;10.014;2023-07-31T03:28:29;15.00;99.90
38582;DHT22;24349;53.720;10.014;2023-07-31T03:30:55;15.00;99.90
38582;DHT22;24349;53.720;10.014;2023-07-31T03:33:21;15.00;99.90
38582;DHT22;24349;53.720;10.014;2023-07-31T03:35:47;15.00;99.90
38582;DHT22;24349;53.720;10.014;2023-07-31T03:38:12;15.00;99.90
38582;DHT22;24349;53.720;10.014;2023-07-31T03:40:38;15.00;99.90
38582;DHT22;24349;53.720;10.014;2023-07-31T03:43:04;15.00;99.90
38582;DHT22;24349;53.720;10.014;2023-07-31T03:45:30;14.90;99.90
38582;DHT22;24349;53.720;10.014;2023-07-31T03:47:55;15.00;99.90
38582;DHT22;24349;53.720;10.014;2023-07-31T03:50:21;14.90;99.90
38582;DHT22;24349;53.720;10.014;2023-07-31T03:52:47;15.00;99.90
38582;DHT22;24349;53.720;10.014;2023-07-31T03:55:12;15.10;99.90
38582;DHT22;24349;53.720;10.014;2023-07-31T03:57:38;15.10;99.90
38582;DHT22;24349;53.720;10.014;2023-07-31T04:00:04;15.10;99.90
38582;DHT22;24349;53.720;10.014;2023-07-31T04:02:30;15.10;99.90
38582;DHT22;24349;53.720;10.014;2023-07-31T04:04:55;15.10;99.90
38582;DHT22;24349;53.720;10.014;2023-07-31T04:07:21;15.10;99.90
38582;DHT22;24349;53.720;10.014;2023-07-31T04:09:46;15.10;99.90
38582;DHT22;24349;53.720;10.014;2023-07-31T04:12:12;15.10;99.90
38582;DHT22;24349;53.720;10.014;2023-07-31T04:14:37;15.20;99.90
38582;DHT22;24349;53.720;10.014;2023-07-31T04:17:03;15.20;99.90
38582;DHT22;24349;53.720;10.014;2023-07-31T04:19:29;15.20;99.90
38582;DHT22;24349;53.720;10.014;2023-07-31T04:21:54;15.20;99.90
38582;DHT22;24349;53.720;10.014;2023-07-31T04:24:20;15.30;99.90
38582;DHT22;24349;53.720;10.014;2023-07-31T04:26:50;15.30;99.90
38582;DHT22;24349;53.720;10.014;2023-07-31T04:29:16;15.40;99.90
38582;DHT22;24349;53.720;10.014;2023-07-31T04:31:42;15.30;99.90
38582;DHT22;24349;53.720;10.014;2023-07-31T04:34:07;15.20;99.90
38582;DHT22;24349;53.720;10.014;2023-07-31T04:36:34;15.30;99.90
38582;DHT22;24349;53.720;10.014;2023-07-31T04:39:00;15.30;99.90
38582;DHT22;24349;53.720;10.014;2023-07-31T04:41:26;15.30;99.90
38582;DHT22;24349;53.720;10.014;2023-07-31T04:43:51;15.40;99.90
38582;DHT22;24349;53.720;10.014;2023-07-31T04:46:17;15.40;99.90
38582;DHT22;24349;53.720;10.014;2023-07-31T04:48:43;15.40;99.90
38582;DHT22;24349;53.720;10.014;2023-07-31T04:51:08;15.40;99.90
38582;DHT22;24349;53.720;10.014;2023-07-31T04:53:37;15.40;99.90
38582;DHT22;24349;53.720;10.014;2023-07-31T04:56:02;15.40;99.90
38582;DHT22;24349;53.720;10.014;2023-07-31T04:58:28;15.40;99.90
38582;DHT22;24349;53.720;10.014;2023-07-31T05:00:54;15.30;99.90
38582;DHT22;24349;53.720;10.014;2023-07-31T05:03:19;15.40;99.90
38582;DHT22;24349;53.720;10.014;2023-07-31T05:05:45;15.30;99.90
38582;DHT22;24349;53.720;10.014;2023-07-31T05:08:11;15.40;99.90
38582;DHT22;24349;53.720;10.014;2023-07-31T05:10:36;15.40;99.90
38582;DHT22;24349;53.720;10.014;2023-07-31T05:13:02;15.40;99.90
38582;DHT22;24349;53.720;10.014;2023-07-31T05:15:28;15.40;99.90
38582;DHT22;24349;53.720;10.014;2023-07-31T05:17:54;15.40;99.90
38582;DHT22;24349;53.720;10.014;2023-07-31T05:20:20;15.40;99.90
38582;DHT22;24349;53.720;10.014;2023-07-31T05:22:46;15.50;99.90
38582;DHT22;24349;53.720;10.014;2023-07-31T05:25:11;15.40;99.90
38582;DHT22;24349;53.720;10.014;2023-07-31T05:27:37;15.30;99.90
38582;DHT22;24349;53.720;10.014;2023-07-31T05:30:03;15.40;99.90
38582;DHT22;24349;53.720;10.014;2023-07-31T05:32:28;15.40;99.90
38582;DHT22;24349;53.720;10.014;2023-07-31T05:34:54;15.40;99.90
38582;DHT22;24349;53.720;10.014;2023-07-31T05:37:20;15.40;99.90
38582;DHT22;24349;53.720;10.014;2023-07-31T05:39:46;15.40;99.90
38582;DHT22;24349;53.720;10.014;2023-07-31T05:42:11;15.40;99.90
38582;DHT22;24349;53.720;10.014;2023-07-31T05:44:37;15.50;99.90
38582;DHT22;24349;53.720;10.014;2023-07-31T05:47:02;15.50;99.90
38582;DHT22;24349;53.720;10.014;2023-07-31T05:49:28;15.40;99.90
38582;DHT22;24349;53.720;10.014;2023-07-31T05:51:53;15.50;99.90
38582;DHT22;24349;53.720;10.014;2023-07-31T05:54:19;15.50;99.90
38582;DHT22;24349;53.720;10.014;2023-07-31T05:56:45;15.50;99.90
38582;DHT22;24349;53.720;10.014;2023-07-31T05:59:12;15.50;99.90
38582;DHT22;24349;53.720;10.014;2023-07-31T06:01:39;15.40;99.90
38582;DHT22;24349;53.720;10.014;2023-07-31T06:04:04;15.60;99.90
38582;DHT22;24349;53.720;10.014;2023-07-31T06:06:30;15.50;99.90
38582;DHT22;24349;53.720;10.014;2023-07-31T06:08:56;15.50;99.90
38582;DHT22;24349;53.720;10.014;2023-07-31T06:11:22;15.60;99.90
38582;DHT22;24349;53.720;10.014;2023-07-31T06:13:48;15.60;99.90
38582;DHT22;24349;53.720;10.014;2023-07-31T06:16:14;15.50;99.90
38582;DHT22;24349;53.720;10.014;2023-07-31T06:18:41;15.60;99.90
38582;DHT22;24349;53.720;10.014;2023-07-31T06:21:07;15.60;99.90
38582;DHT22;24349;53.720;10.014;2023-07-31T06:23:33;15.70;99.90
38582;DHT22;24349;53.720;10.014;2023-07-31T06:25:59;15.60;99.90
38582;DHT22;24349;53.720;10.014;2023-07-31T06:28:31;15.60;99.90
38582;DHT22;24349;53.720;10.014;2023-07-31T06:30:57;15.60;99.90
38582;DHT22;24349;53.720;10.014;2023-07-31T06:33:23;15.60;99.90
38582;DHT22;24349;53.720;10.014;2023-07-31T06:35:49;15.60;99.90
38582;DHT22;24349;53.720;10.014;2023-07-31T06:38:15;15.70;99.90
38582;DHT22;24349;53.720;10.014;2023-07-31T06:40:40;15.60;99.90
38582;DHT22;24349;53.720;10.014;2023-07-31T06:43:06;15.50;99.90
38582;DHT22;24349;53.720;10.014;2023-07-31T06:45:36;15.50;99.90
38582;DHT22;24349;53.720;10.014;2023-07-31T06:48:03;15.50;99.90
38582;DHT22;24349;53.720;10.014;2023-07-31T06:50:30;15.50;99.90
38582;DHT22;24349;53.720;10.014;2023-07-31T06:52:55;15.60;99.90
38582;DHT22;24349;53.720;10.014;2023-07-31T06:55:22;15.60;99.90
38582;DHT22;24349;53.720;10.014;2023-07-31T06:57:49;15.60;99.90
38582;DHT22;24349;53.720;10.014;2023-07-31T07:00:15;15.60;99.90
38582;DHT22;24349;53.720;10.014;2023-07-31T07:02:41;15.70;99.90
38582;DHT22;24349;53.720;10.014;2023-07-31T07:05:07;15.70;99.90
38582;DHT22;24349;53.720;10.014;2023-07-31T07:07:33;15.80;99.90
38582;DHT22;24349;53.720;10.014;2023-07-31T07:09:59;15.70;99.90
38582;DHT22;24349;53.720;10.014;2023-07-31T07:12:25;15.70;99.90
38582;DHT22;24349;53.720;10.014;2023-07-31T07:14:51;15.60;99.90
38582;DHT22;24349;53.720;10.014;2023-07-31T07:17:18;15.80;99.90
38582;DHT22;24349;53.720;10.014;2023-07-31T07:19:44;15.70;99.90
38582;DHT22;24349;53.720;10.014;2023-07-31T07:22:11;15.70;99.90
38582;DHT22;24349;53.720;10.014;2023-07-31T07:24:37;15.70;99.90
38582;DHT22;24349;53.720;10.014;2023-07-31T07:27:03;15.80;99.90
38582;DHT22;24349;53.720;10.014;2023-07-31T07:29:29;15.80;99.90
38582;DHT22;24349;53.720;10.014;2023-07-31T07:31:54;15.70;99.90
38582;DHT22;24349;53.720;10.014;2023-07-31T07:34:23;15.70;99.90
38582;DHT22;24349;53.720;10.014;2023-07-31T07:36:49;15.80;99.90
38582;DHT22;24349;53.720;10.014;2023-07-31T07:39:15;15.70;99.90
38582;DHT22;24349;53.720;10.014;2023-07-31T07:41:40;15.80;99.90
38582;DHT22;24349;53.720;10.014;2023-07-31T07:44:07;15.80;99.90
38582;DHT22;24349;53.720;10.014;2023-07-31T07:46:33;15.80;99.90
38582;DHT22;24349;53.720;10.014;2023-07-31T07:48:58;15.90;99.90
38582;DHT22;24349;53.720;10.014;2023-07-31T07:51:24;15.90;99.90
38582;DHT22;24349;53.720;10.014;2023-07-31T07:53:50;16.10;99.90
38582;DHT22;24349;53.720;10.014;2023-07-31T07:56:15;16.00;99.90
38582;DHT22;24349;53.720;10.014;2023-07-31T07:58:41;16.10;99.90
38582;DHT22;24349;53.720;10.014;2023-07-31T08:01:06;16.00;99.90
38582;DHT22;24349;53.720;10.014;2023-07-31T08:03:32;16.10;99.90
38582;DHT22;24349;53.720;10.014;2023-07-31T08:06:01;16.10;99.90
38582;DHT22;24349;53.720;10.014;2023-07-31T08:08:28;16.20;99.90
38582;DHT22;24349;53.720;10.014;2023-07-31T08:10:54;16.30;99.90
38582;DHT22;24349;53.720;10.014;2023-07-31T08:13:19;16.30;99.90
38582;DHT22;24349;53.720;10.014;2023-07-31T08:15:45;16.30;99.90
38582;DHT22;24349;53.720;10.014;2023-07-31T08:18:11;16.40;99.90
38582;DHT22;24349;53.720;10.014;2023-07-31T08:20:37;16.20;99.90
38582;DHT22;24349;53.720;10.014;2023-07-31T08:23:03;16.30;99.90
38582;DHT22;24349;53.720;10.014;2023-07-31T08:25:29;16.40;99.90
38582;DHT22;24349;53.720;10.014;2023-07-31T08:27:55;16.40;99.90
38582;DHT22;24349;53.720;10.014;2023-07-31T08:30:21;16.60;99.90
38582;DHT22;24349;53.720;10.014;2023-07-31T08:32:47;16.60;99.90
38582;DHT22;24349;53.720;10.014;2023-07-31T08:35:12;16.40;99.90
38582;DHT22;24349;53.720;10.014;2023-07-31T08:37:38;16.50;99.90
38582;DHT22;24349;53.720;10.014;2023-07-31T08:40:05;16.60;99.90
38582;DHT22;24349;53.720;10.014;2023-07-31T08:42:31;16.50;99.90
38582;DHT22;24349;53.720;10.014;2023-07-31T08:44:59;16.70;99.90
38582;DHT22;24349;53.720;10.014;2023-07-31T08:47:26;16.60;99.90
38582;DHT22;24349;53.720;10.014;2023-07-31T08:49:52;16.40;99.90
38582;DHT22;24349;53.720;10.014;2023-07-31T08:52:19;16.40;99.90
38582;DHT22;24349;53.720;10.014;2023-07-31T08:54:45;16.50;99.90
38582;DHT22;24349;53.720;10.014;2023-07-31T08:57:11;16.60;99.90
38582;DHT22;24349;53.720;10.014;2023-07-31T08:59:37;16.70;99.90
38582;DHT22;24349;53.720;10.014;2023-07-31T09:02:06;16.60;99.90
38582;DHT22;24349;53.720;10.014;2023-07-31T09:04:33;16.70;99.90
38582;DHT22;24349;53.720;10.014;2023-07-31T09:07:03;16.50;99.90
38582;DHT22;24349;53.720;10.014;2023-07-31T09:09:33;16.60;99.90
38582;DHT22;24349;53.720;10.014;2023-07-31T09:11:59;16.60;99.90
38582;DHT22;24349;53.720;10.014;2023-07-31T09:14:25;16.60;99.90
38582;DHT22;24349;53.720;10.014;2023-07-31T09:16:58;16.70;99.90
38582;DHT22;24349;53.720;10.014;2023-07-31T09:19:33;16.70;99.90
38582;DHT22;24349;53.720;10.014;2023-07-31T09:22:00;16.60;99.90
38582;DHT22;24349;53.720;10.014;2023-07-31T09:24:27;16.60;99.90
38582;DHT22;24349;53.720;10.014;2023-07-31T09:26:57;16.70;99.90
38582;DHT22;24349;53.720;10.014;2023-07-31T09:29:24;16.80;99.90
38582;DHT22;24349;53.720;10.014;2023-07-31T09:31:50;16.70;99.90
38582;DHT22;24349;53.720;10.014;2023-07-31T09:34:16;16.90;99.90
38582;DHT22;24349;53.720;10.014;2023-07-31T09:36:47;17.10;99.90
38582;DHT22;24349;53.720;10.014;2023-07-31T09:39:14;17.30;99.90
38582;DHT22;24349;53.720;10.014;2023-07-31T09:41:47;17.40;99.90
38582;DHT22;24349;53.720;10.014;2023-07-31T09:44:13;17.40;99.90
38582;DHT22;24349;53.720;10.014;2023-07-31T09:46:39;17.40;99.90
38582;DHT22;24349;53.720;10.014;2023-07-31T09:49:09;17.40;99.90
38582;DHT22;24349;53.720;10.014;2023-07-31T09:51:36;17.50;99.90
38582;DHT22;24349;53.720;10.014;2023-07-31T09:54:14;17.30;99.90
38582;DHT22;24349;53.720;10.014;2023-07-31T09:56:47;17.30;99.90
38582;DHT22;24349;53.720;10.014;2023-07-31T09:59:18;17.40;99.90
38582;DHT22;24349;53.720;10.014;2023-07-31T10:01:45;17.30;99.90
38582;DHT22;24349;53.720;10.014;2023-07-31T10:04:12;17.20;99.90
38582;DHT22;24349;53.720;10.014;2023-07-31T10:06:40;17.10;99.90
38582;DHT22;24349;53.720;10.014;2023-07-31T10:09:09;16.90;99.90
38582;DHT22;24349;53.720;10.014;2023-07-31T10:11:57;16.90;99.90
38582;DHT22;24349;53.720;10.014;2023-07-31T10:14:26;16.80;99.90
38582;DHT22;24349;53.720;10.014;2023-07-31T10:16:53;16.70;99.90
38582;DHT22;24349;53.720;10.014;2023-07-31T10:19:19;16.80;99.90
38582;DHT22;24349;53.720;10.014;2023-07-31T10:21:46;16.70;99.90
38582;DHT22;24349;53.720;10.014;2023-07-31T10:24:12;16.80;99.90
38582;DHT22;24349;53.720;10.014;2023-07-31T10:26:38;16.80;99.90
38582;DHT22;24349;53.720;10.014;2023-07-31T10:29:05;16.80;99.90
38582;DHT22;24349;53.720;10.014;2023-07-31T10:31:31;16.60;99.90
38582;DHT22;24349;53.720;10.014;2023-07-31T10:33:58;16.70;99.90
38582;DHT22;24349;53.720;10.014;2023-07-31T10:36:24;16.60;99.90
38582;DHT22;24349;53.720;10.014;2023-07-31T10:38:51;16.70;99.90
38582;DHT22;24349;53.720;10.014;2023-07-31T10:41:17;16.70;99.90
38582;DHT22;24349;53.720;10.014;2023-07-31T10:43:42;16.70;99.90
38582;DHT22;24349;53.720;10.014;2023-07-31T10:46:12;16.80;99.90
38582;DHT22;24349;53.720;10.014;2023-07-31T10:48:39;16.90;99.90
38582;DHT22;24349;53.720;10.014;2023-07-31T10:51:11;16.90;99.90
38582;DHT22;24349;53.720;10.014;2023-07-31T10:53:38;17.00;99.90
38582;DHT22;24349;53.720;10.014;2023-07-31T10:56:13;17.00;99.90
38582;DHT22;24349;53.720;10.014;2023-07-31T10:58:44;17.10;99.90
38582;DHT22;24349;53.720;10.014;2023-07-31T11:01:11;16.90;99.90
38582;DHT22;24349;53.720;10.014;2023-07-31T11:03:44;16.80;99.90
38582;DHT22;24349;53.720;10.014;2023-07-31T11:06:09;16.60;99.90
38582;DHT22;24349;53.720;10.014;2023-07-31T11:08:44;16.70;99.90
38582;DHT22;24349;53.720;10.014;2023-07-31T11:11:13;16.70;99.90
38582;DHT22;24349;53.720;10.014;2023-07-31T11:13:44;16.70;99.90
38582;DHT22;24349;53.720;10.014;2023-07-31T11:16:13;16.70;99.90
38582;DHT22;24349;53.720;10.014;2023-07-31T11:18:41;16.90;99.90
38582;DHT22;24349;53.720;10.014;2023-07-31T11:21:11;16.70;99.90
38582;DHT22;24349;53.720;10.014;2023-07-31T11:23:37;16.70;99.90
38582;DHT22;24349;53.720;10.014;2023-07-31T11:26:05;16.90;99.90
38582;DHT22;24349;53.720;10.014;2023-07-31T11:28:34;17.00;99.90
38582;DHT22;24349;53.720;10.014;2023-07-31T11:31:01;17.20;99.90
38582;DHT22;24349;53.720;10.014;2023-07-31T11:33:27;17.00;99.90
38582;DHT22;24349;53.720;10.014;2023-07-31T11:35:53;17.10;99.90
38582;DHT22;24349;53.720;10.014;2023-07-31T11:38:30;17.10;99.90
38582;DHT22;24349;53.720;10.014;2023-07-31T11:41:01;17.20;99.90
38582;DHT22;24349;53.720;10.014;2023-07-31T11:43:28;17.40;99.90
38582;DHT22;24349;53.720;10.014;2023-07-31T11:45:58;17.60;99.90
38582;DHT22;24349;53.720;10.014;2023-07-31T11:50:56;17.80;99.90
38582;DHT22;24349;53.720;10.014;2023-07-31T11:55:52;17.60;99.90
38582;DHT22;24349;53.720;10.014;2023-07-31T11:58:18;17.40;99.90
38582;DHT22;24349;53.720;10.014;2023-07-31T12:00:45;17.50;99.90
38582;DHT22;24349;53.720;10.014;2023-07-31T12:03:11;17.90;99.90
38582;DHT22;24349;53.720;10.014;2023-07-31T12:05:37;18.10;99.90
38582;DHT22;24349;53.720;10.014;2023-07-31T12:08:09;18.30;99.90
38582;DHT22;24349;53.720;10.014;2023-07-31T12:10:36;18.30;99.90
38582;DHT22;24349;53.720;10.014;2023-07-31T12:13:22;18.40;99.90
38582;DHT22;24349;53.720;10.014;2023-07-31T12:15:48;18.40;99.90
38582;DHT22;24349;53.720;10.014;2023-07-31T12:18:19;18.40;99.90
38582;DHT22;24349;53.720;10.014;2023-07-31T12:20:56;18.50;99.90
38582;DHT22;24349;53.720;10.014;2023-07-31T12:23:30;18.50;99.90
38582;DHT22;24349;53.720;10.014;2023-07-31T12:26:07;18.40;99.90
38582;DHT22;24349;53.720;10.014;2023-07-31T12:31:04;18.10;99.90
38582;DHT22;24349;53.720;10.014;2023-07-31T12:33:31;18.30;99.90
38582;DHT22;24349;53.720;10.014;2023-07-31T12:35:58;18.50;99.90
38582;DHT22;24349;53.720;10.014;2023-07-31T12:38:23;18.60;99.90
38582;DHT22;24349;53.720;10.014;2023-07-31T12:40:49;18.50;99.90
38582;DHT22;24349;53.720;10.014;2023-07-31T12:43:15;18.50;99.90
38582;DHT22;24349;53.720;10.014;2023-07-31T12:45:41;18.40;99.90
38582;DHT22;24349;53.720;10.014;2023-07-31T12:48:07;18.40;99.90
38582;DHT22;24349;53.720;10.014;2023-07-31T12:50:32;18.50;99.90
38582;DHT22;24349;53.720;10.014;2023-07-31T12:52:58;18.60;99.90
38582;DHT22;24349;53.720;10.014;2023-07-31T12:55:24;18.50;99.90
38582;DHT22;24349;53.720;10.014;2023-07-31T12:57:50;18.50;99.90
38582;DHT22;24349;53.720;10.014;2023-07-31T13:00:16;18.40;99.90
38582;DHT22;24349;53.720;10.014;2023-07-31T13:02:42;18.40;99.90
38582;DHT22;24349;53.720;10.014;2023-07-31T13:05:08;18.50;99.90
38582;DHT22;24349;53.720;10.014;2023-07-31T13:07:34;18.30;99.90
38582;DHT22;24349;53.720;10.014;2023-07-31T13:10:00;18.20;99.90
38582;DHT22;24349;53.720;10.014;2023-07-31T13:12:25;17.80;99.90
38582;DHT22;24349;53.720;10.014;2023-07-31T13:14:51;17.70;99.90
38582;DHT22;24349;53.720;10.014;2023-07-31T13:17:17;17.70;99.90
38582;DHT22;24349;53.720;10.014;2023-07-31T13:19:43;17.60;99.90
38582;DHT22;24349;53.720;10.014;2023-07-31T13:22:08;17.40;99.90
38582;DHT22;24349;53.720;10.014;2023-07-31T13:24:34;17.50;99.90
38582;DHT22;24349;53.720;10.014;2023-07-31T13:26:59;17.40;99.90
38582;DHT22;24349;53.720;10.014;2023-07-31T13:29:25;17.50;99.90
38582;DHT22;24349;53.720;10.014;2023-07-31T13:31:52;17.60;99.90
38582;DHT22;24349;53.720;10.014;2023-07-31T13:34:18;17.80;99.90
38582;DHT22;24349;53.720;10.014;2023-07-31T13:36:43;17.70;99.90
38582;DHT22;24349;53.720;10.014;2023-07-31T13:39:09;17.70;99.90
38582;DHT22;24349;53.720;10.014;2023-07-31T13:41:35;17.70;99.90
38582;DHT22;24349;53.720;10.014;2023-07-31T13:44:00;17.60;99.90
38582;DHT22;24349;53.720;10.014;2023-07-31T13:46:26;17.70;99.90
38582;DHT22;24349;53.720;10.014;2023-07-31T13:48:52;17.60;99.90
38582;DHT22;24349;53.720;10.014;2023-07-31T13:51:23;17.70;99.90
38582;DHT22;24349;53.720;10.014;2023-07-31T13:53:49;17.60;99.90
38582;DHT22;24349;53.720;10.014;2023-07-31T13:56:14;17.60;99.90
38582;DHT22;24349;53.720;10.014;2023-07-31T13:58:40;17.50;99.90
38582;DHT22;24349;53.720;10.014;2023-07-31T14:01:05;17.50;99.90
38582;DHT22;24349;53.720;10.014;2023-07-31T14:03:31;17.40;99.90
38582;DHT22;24349;53.720;10.014;2023-07-31T14:05:57;17.30;99.90
38582;DHT22;24349;53.720;10.014;2023-07-31T14:08:22;17.20;99.90
38582;DHT22;24349;53.720;10.014;2023-07-31T14:10:48;17.10;99.90
38582;DHT22;24349;53.720;10.014;2023-07-31T14:13:14;17.10;99.90
38582;DHT22;24349;53.720;10.014;2023-07-31T14:15:42;17.10;99.90
38582;DHT22;24349;53.720;10.014;2023-07-31T14:18:08;17.00;99.90
38582;DHT22;24349;53.720;10.014;2023-07-31T14:20:34;17.00;99.90
38582;DHT22;24349;53.720;10.014;2023-07-31T14:22:59;17.20;99.90
38582;DHT22;24349;53.720;10.014;2023-07-31T14:25:25;17.10;99.90
38582;DHT22;24349;53.720;10.014;2023-07-31T14:27:51;17.30;99.90
38582;DHT22;24349;53.720;10.014;2023-07-31T14:30:16;17.40;99.90
38582;DHT22;24349;53.720;10.014;2023-07-31T14:32:43;17.40;99.90
38582;DHT22;24349;53.720;10.014;2023-07-31T14:35:09;17.50;99.90
38582;DHT22;24349;53.720;10.014;2023-07-31T14:37:41;17.40;99.90
38582;DHT22;24349;53.720;10.014;2023-07-31T14:40:09;17.40;99.90
38582;DHT22;24349;53.720;10.014;2023-07-31T14:42:35;17.30;99.90
38582;DHT22;24349;53.720;10.014;2023-07-31T14:45:02;17.10;99.90
38582;DHT22;24349;53.720;10.014;2023-07-31T14:47:28;17.00;99.90
38582;DHT22;24349;53.720;10.014;2023-07-31T14:49:53;17.00;99.90
38582;DHT22;24349;53.720;10.014;2023-07-31T14:52:19;17.10;99.90
38582;DHT22;24349;53.720;10.014;2023-07-31T14:54:45;17.30;99.90
38582;DHT22;24349;53.720;10.014;2023-07-31T14:57:10;17.40;99.90
38582;DHT22;24349;53.720;10.014;2023-07-31T14:59:36;17.30;99.90
38582;DHT22;24349;53.720;10.014;2023-07-31T15:02:02;17.40;99.90
38582;DHT22;24349;53.720;10.014;2023-07-31T15:04:28;17.50;99.90
38582;DHT22;24349;53.720;10.014;2023-07-31T15:06:54;17.50;99.90
38582;DHT22;24349;53.720;10.014;2023-07-31T15:09:19;17.60;99.90
38582;DHT22;24349;53.720;10.014;2023-07-31T15:11:45;17.60;99.90
38582;DHT22;24349;53.720;10.014;2023-07-31T15:14:11;17.60;99.90
38582;DHT22;24349;53.720;10.014;2023-07-31T15:16:36;17.60;99.90
38582;DHT22;24349;53.720;10.014;2023-07-31T15:19:02;17.50;99.90
38582;DHT22;24349;53.720;10.014;2023-07-31T15:21:27;17.50;99.90
38582;DHT22;24349;53.720;10.014;2023-07-31T15:23:53;17.40;99.90
38582;DHT22;24349;53.720;10.014;2023-07-31T15:26:19;17.40;99.90